Tropical Cyclones
[Index]
Main Index Home Page Stock Weather Photos Extreme Storms Discussion Storm News and Storm Chasing Reports Tropical Cyclones / Hurricanes / Typhoons Weather Data and Links Wild Fires / Bushfires Weather Observation Techniques Weather Picture Catalogue Tornado Pictures and Reports Stock Video Footage and DVDs for sale
Season 1978-1979 Tropical Cyclone HAZEL Track Map
Season 1978-1979 Summaries: [BoM-AU] [JTWC-AU] [JTWC-SIO] [JTWC-SPAC] [JTWC-SH]
<<- Previous TC | JTWC 1978-1979 Season | Next TC ->>

click for intensity scale information  Lat/long Grid: Show Hide

 Date Labels: Show Hide

Joint Typhoon Warning Centre Cyclone Data

Name: HAZEL

07 Mar 1979 12:00 UTC to 14 Mar 1979 00:00 UTC

    date/time    lat    long     hPa   cat  kts
1979-03-07 12   15.0   122.8                  30          
1979-03-07 18   14.3   122.3                  35          
1979-03-08 00   13.8   121.8                  35          
1979-03-08 06   13.5   121.3                  35          
1979-03-08 12   13.5   120.9                  35          
1979-03-08 18   14.0   120.3            1     40          
1979-03-09 00   14.5   119.8            1     40          
1979-03-09 06   15.1   119.6            1     45          
1979-03-09 12   15.7   119.4            1     50          
1979-03-09 18   16.0   119.0            2     60          
1979-03-10 00   16.2   118.5            2     65          
1979-03-10 06   16.8   117.9            2     70          
1979-03-10 12   17.3   117.2            3     75          
1979-03-10 18   17.7   116.5            3     80          
1979-03-11 00   18.0   115.8            3     85          
1979-03-11 06   18.2   115.0            3     85          
1979-03-11 12   18.5   114.2            3     90          
1979-03-11 18   18.7   113.6            3     90          
1979-03-12 00   19.0   113.1            3     90          
1979-03-12 06   19.5   112.6            3     90          
1979-03-12 12   20.3   112.2            3     95          
1979-03-12 18   21.1   112.1            4    100          
1979-03-13 00   22.1   112.2            4    100          
1979-03-13 06   23.3   112.5            3     95          
1979-03-13 12   24.8   113.0            3     85          
1979-03-13 18   26.9   114.0            2     70          
1979-03-14 00   29.7   115.4            1     50          
Winds are 1-min average.

Tropical cyclone tracks developed by Michael Bath using data from the Joint Typhoon Warning Centre Best Tracks and Google Maps.


[Australian Severe Weather index] [Copyright Notice] [Email Contacts] [Search This Site] [Privacy Policy]
Document: tropical_cyclone_hazel.htm Updated: 18 September 2016